createdAt,value
2023-03-21T00:00:54.880Z,8.69
2023-03-21T00:03:26.090Z,8.71
2023-03-21T00:05:56.555Z,8.71
2023-03-21T00:08:28.078Z,8.72
2023-03-21T00:11:03.339Z,8.71
2023-03-21T00:13:38.425Z,8.69
2023-03-21T00:16:18.714Z,8.68
2023-03-21T00:18:54.577Z,8.67
2023-03-21T00:24:19.725Z,8.64
2023-03-21T00:26:50.013Z,8.63
2023-03-21T00:29:20.430Z,8.63
2023-03-21T00:31:50.829Z,8.60
2023-03-21T00:34:31.667Z,8.56
2023-03-21T00:37:12.630Z,8.53
2023-03-21T00:39:43.321Z,8.53
2023-03-21T00:42:14.302Z,8.53
2023-03-21T00:44:45.359Z,8.53
2023-03-21T00:47:16.527Z,8.53
2023-03-21T00:49:46.838Z,8.51
2023-03-21T00:52:24.744Z,8.51
2023-03-21T00:55:04.880Z,8.50
2023-03-21T00:57:39.277Z,8.49
2023-03-21T01:00:13.853Z,8.48
2023-03-21T01:03:14.272Z,8.45
2023-03-21T01:06:05.463Z,8.44
2023-03-21T01:08:50.969Z,8.44
2023-03-21T01:11:24.707Z,8.44
2023-03-21T01:14:07.308Z,8.44
2023-03-21T01:16:42.049Z,8.44
2023-03-21T01:19:25.092Z,8.44
2023-03-21T01:21:56.992Z,8.44
2023-03-21T01:24:27.646Z,8.43
2023-03-21T01:26:58.860Z,8.43
2023-03-21T01:29:29.174Z,8.43
2023-03-21T01:31:59.816Z,8.43
2023-03-21T01:34:30.227Z,8.41
2023-03-21T01:37:01.523Z,8.41
2023-03-21T01:39:34.867Z,8.41
2023-03-21T01:42:05.488Z,8.40
2023-03-21T01:44:57.728Z,8.40
2023-03-21T01:47:28.472Z,8.40
2023-03-21T01:50:02.054Z,8.39
2023-03-21T01:52:38.666Z,8.39
2023-03-21T01:55:13.942Z,8.40
2023-03-21T01:58:02.348Z,8.40
2023-03-21T02:49:57.590Z,8.36
2023-03-21T02:52:38.600Z,8.36
2023-03-21T02:55:15.643Z,8.35
2023-03-21T02:57:50.530Z,8.36
2023-03-21T03:00:24.516Z,8.37
2023-03-21T03:03:08.265Z,8.36
2023-03-21T03:05:46.912Z,8.38
2023-03-21T03:08:38.435Z,8.38
2023-03-21T03:11:23.865Z,8.38
2023-03-21T03:14:28.089Z,8.38
2023-03-21T03:17:08.309Z,8.38
2023-03-21T03:19:51.431Z,8.40
2023-03-21T03:22:29.032Z,8.41
2023-03-21T03:25:18.583Z,8.43
2023-03-21T03:27:57.536Z,8.44
2023-03-21T03:30:39.262Z,8.45
2023-03-21T03:33:16.927Z,8.45
2023-03-21T03:36:02.563Z,8.45
2023-03-21T03:38:37.731Z,8.45
2023-03-21T03:41:15.342Z,8.44
2023-03-21T03:43:51.037Z,8.44
2023-03-21T03:46:26.509Z,8.46
2023-03-21T03:48:59.729Z,8.46
2023-03-21T03:51:33.640Z,8.47
2023-03-21T03:54:08.981Z,8.48
2023-03-21T03:56:40.697Z,8.49
2023-03-21T03:59:11.574Z,8.48
2023-03-21T04:01:42.325Z,8.48
2023-03-21T04:04:13.879Z,8.46
2023-03-21T04:06:45.319Z,8.47
2023-03-21T04:09:21.038Z,8.46
2023-03-21T04:11:54.176Z,8.46
2023-03-21T04:14:28.696Z,8.46
2023-03-21T04:17:03.525Z,8.47
2023-03-21T04:19:34.067Z,8.47
2023-03-21T04:22:04.407Z,8.46
2023-03-21T04:24:37.385Z,8.47
2023-03-21T04:27:08.102Z,8.47
2023-03-21T04:29:38.402Z,8.46
2023-03-21T04:32:16.326Z,8.46
2023-03-21T04:34:49.969Z,8.48
2023-03-21T04:37:23.427Z,8.48
2023-03-21T04:39:53.777Z,8.47
2023-03-21T04:42:24.790Z,8.48
2023-03-21T04:44:55.808Z,8.47
2023-03-21T04:47:26.143Z,8.48
2023-03-21T04:49:56.975Z,8.47
2023-03-21T04:52:27.844Z,8.48
2023-03-21T04:54:58.370Z,8.47
2023-03-21T04:57:28.865Z,8.46
2023-03-21T04:59:59.234Z,8.47
2023-03-21T05:02:29.528Z,8.47
2023-03-21T05:04:59.818Z,8.48
2023-03-21T05:07:31.239Z,8.48
2023-03-21T05:10:02.641Z,8.48
2023-03-21T05:12:33.131Z,8.48
2023-03-21T05:15:03.682Z,8.47
2023-03-21T05:17:34.252Z,8.47
2023-03-21T05:20:06.146Z,8.46
2023-03-21T05:22:40.382Z,8.45
2023-03-21T05:25:13.036Z,8.44
2023-03-21T05:27:45.147Z,8.42
2023-03-21T05:30:18.152Z,8.41
2023-03-21T05:32:48.614Z,8.39
2023-03-21T05:35:19.153Z,8.38
2023-03-21T05:37:49.413Z,8.39
2023-03-21T05:40:20.360Z,8.38
2023-03-21T05:42:50.936Z,8.39
2023-03-21T05:45:21.236Z,8.38
2023-03-21T05:47:51.589Z,8.38
2023-03-21T05:50:22.344Z,8.39
2023-03-21T05:52:52.634Z,8.39
2023-03-21T05:55:22.958Z,8.40
2023-03-21T05:57:53.271Z,8.40
2023-03-21T06:00:24.247Z,8.41
2023-03-21T06:02:54.850Z,8.42
2023-03-21T06:05:25.341Z,8.45
2023-03-21T06:07:56.273Z,8.46
2023-03-21T06:10:26.536Z,8.48
2023-03-21T06:12:57.117Z,8.50
2023-03-21T06:15:27.538Z,8.52
2023-03-21T06:17:58.103Z,8.54
2023-03-21T06:20:28.489Z,8.57
2023-03-21T06:22:58.779Z,8.60
2023-03-21T06:25:30.399Z,8.60
2023-03-21T06:28:00.687Z,8.62
2023-03-21T06:30:31.149Z,8.64
2023-03-21T06:33:01.434Z,8.65
2023-03-21T06:35:31.915Z,8.66
2023-03-21T06:38:02.211Z,8.70
2023-03-21T06:40:32.783Z,8.71
2023-03-21T06:43:03.086Z,8.73
2023-03-21T06:45:33.342Z,8.75
2023-03-21T06:48:03.688Z,8.76
2023-03-21T06:50:34.251Z,8.78
2023-03-21T06:53:04.870Z,8.80
2023-03-21T06:55:36.534Z,8.83
2023-03-21T06:58:07.328Z,8.86
2023-03-21T07:00:37.607Z,8.89
2023-03-21T07:03:07.844Z,8.92
2023-03-21T07:05:39.649Z,8.95
2023-03-21T07:08:11.451Z,8.98
2023-03-21T07:10:45.494Z,9.00
2023-03-21T07:13:16.807Z,9.02
2023-03-21T07:15:47.611Z,9.03
2023-03-21T07:18:17.894Z,9.05
2023-03-21T07:20:51.847Z,9.08
2023-03-21T07:23:25.629Z,9.11
2023-03-21T07:25:56.005Z,9.13
2023-03-21T07:28:26.451Z,9.17
2023-03-21T07:30:58.796Z,9.20
2023-03-21T07:33:29.592Z,9.23
2023-03-21T07:36:01.131Z,9.25
2023-03-21T07:38:31.925Z,9.27
2023-03-21T07:41:02.610Z,9.29
2023-03-21T07:43:32.909Z,9.33
2023-03-21T07:46:03.328Z,9.36
2023-03-21T07:48:33.723Z,9.38
2023-03-21T07:51:04.135Z,9.41
2023-03-21T07:53:34.791Z,9.43
2023-03-21T07:56:05.649Z,9.47
2023-03-21T07:58:35.961Z,9.50
2023-03-21T08:01:06.788Z,9.53
2023-03-21T08:03:38.122Z,9.55
2023-03-21T08:06:10.478Z,9.59
2023-03-21T08:08:40.800Z,9.61
2023-03-21T08:11:12.564Z,9.64
2023-03-21T08:13:42.918Z,9.67
2023-03-21T08:16:13.450Z,9.69
2023-03-21T08:18:43.778Z,9.71
2023-03-21T08:21:14.057Z,9.72
2023-03-21T08:23:44.598Z,9.74
2023-03-21T08:26:15.949Z,9.77
2023-03-21T08:28:46.245Z,9.81
2023-03-21T08:31:18.159Z,9.84
2023-03-21T08:33:51.114Z,9.89
2023-03-21T08:36:21.677Z,9.95
2023-03-21T08:38:56.814Z,10.01
2023-03-21T08:41:27.080Z,10.08
2023-03-21T08:43:57.661Z,10.13
2023-03-21T08:46:28.262Z,10.20
2023-03-21T08:48:58.867Z,10.26
2023-03-21T08:51:29.163Z,10.31
2023-03-21T08:53:59.431Z,10.36
2023-03-21T08:56:30.439Z,10.41
2023-03-21T08:59:02.789Z,10.51
2023-03-21T09:01:33.472Z,10.59
2023-03-21T09:04:04.366Z,10.67
2023-03-21T09:06:34.660Z,10.73
2023-03-21T09:09:07.473Z,10.79
2023-03-21T09:11:37.812Z,10.83
2023-03-21T09:14:08.160Z,10.89
2023-03-21T09:16:38.485Z,10.97
2023-03-21T09:19:09.241Z,11.05
2023-03-21T09:21:40.424Z,11.12
2023-03-21T09:24:12.691Z,11.18
2023-03-21T09:26:43.978Z,11.21
2023-03-21T09:29:15.888Z,11.24
2023-03-21T09:31:46.774Z,11.27
2023-03-21T09:34:17.172Z,11.29
2023-03-21T09:36:48.548Z,11.33
2023-03-21T09:39:18.928Z,11.36
2023-03-21T09:42:20.713Z,11.39
2023-03-21T09:45:01.372Z,11.43
2023-03-21T09:47:39.862Z,11.46
2023-03-21T09:50:19.978Z,11.50
2023-03-21T09:52:54.365Z,11.55
2023-03-21T09:55:31.022Z,11.58
2023-03-21T09:58:07.777Z,11.63
2023-03-21T10:00:41.960Z,11.66
2023-03-21T10:03:24.336Z,11.70
2023-03-21T10:05:58.558Z,11.74
2023-03-21T10:08:32.033Z,11.76
2023-03-21T10:11:08.184Z,11.79
2023-03-21T10:13:44.729Z,11.85
2023-03-21T10:16:19.498Z,11.89
2023-03-21T10:18:51.203Z,11.93
2023-03-21T10:21:51.503Z,11.96
2023-03-21T10:24:18.334Z,12.01
2023-03-21T10:26:50.485Z,12.06
2023-03-21T10:29:23.442Z,12.10
2023-03-21T10:31:55.625Z,12.16
2023-03-21T10:34:33.058Z,12.24
2023-03-21T10:37:06.337Z,12.32
2023-03-21T10:39:39.407Z,12.38
2023-03-21T10:42:18.978Z,12.45
2023-03-21T10:44:51.802Z,12.52
2023-03-21T10:47:26.007Z,12.56
2023-03-21T10:50:07.234Z,12.63
2023-03-21T10:52:43.302Z,12.67
2023-03-21T10:55:22.944Z,12.74
2023-03-21T10:57:57.535Z,12.81
2023-03-21T11:00:31.295Z,12.88
2023-03-21T11:03:03.278Z,12.96
2023-03-21T11:05:39.544Z,13.01
2023-03-21T11:08:16.318Z,13.06
2023-03-21T11:10:55.280Z,13.10
2023-03-21T11:13:33.923Z,13.15
2023-03-21T11:16:10.801Z,13.18
2023-03-21T11:18:45.001Z,13.20
2023-03-21T11:21:17.830Z,13.22
2023-03-21T11:23:49.951Z,13.23
2023-03-21T11:26:24.157Z,13.22
2023-03-21T11:28:55.672Z,13.20
2023-03-21T11:31:40.496Z,13.15
2023-03-21T11:34:24.040Z,13.08
2023-03-21T11:36:59.003Z,13.02
2023-03-21T11:39:35.397Z,12.95
2023-03-21T11:42:06.769Z,12.90
2023-03-21T11:44:44.354Z,12.88
2023-03-21T11:47:14.653Z,12.87
2023-03-21T11:49:45.154Z,12.87
2023-03-21T11:52:26.602Z,12.86
2023-03-21T11:55:18.441Z,12.89
2023-03-21T11:58:05.311Z,12.92
2023-03-21T12:00:49.377Z,12.94
2023-03-21T12:03:50.700Z,12.96
2023-03-21T12:06:27.199Z,12.99
2023-03-21T12:09:10.483Z,13.03
2023-03-21T12:11:49.475Z,13.06
2023-03-21T12:14:31.334Z,13.09
2023-03-21T12:17:13.098Z,13.12
2023-03-21T12:19:58.528Z,13.16
2023-03-21T12:22:41.675Z,13.17
2023-03-21T12:25:19.962Z,13.17
2023-03-21T12:28:02.759Z,13.19
2023-03-21T12:30:43.838Z,13.20
2023-03-21T12:33:26.451Z,13.24
2023-03-21T12:36:16.495Z,13.27
2023-03-21T12:39:00.728Z,13.29
2023-03-21T12:41:39.244Z,13.30
2023-03-21T12:44:14.640Z,13.28
2023-03-21T12:46:50.774Z,13.25
2023-03-21T12:49:27.613Z,13.22
2023-03-21T12:52:03.763Z,13.17
2023-03-21T12:54:39.135Z,13.13
2023-03-21T12:57:15.480Z,13.12
2023-03-21T12:59:51.640Z,13.11
2023-03-21T13:02:28.148Z,13.09
2023-03-21T13:05:04.632Z,13.08
2023-03-21T13:07:38.872Z,13.07
2023-03-21T13:10:17.015Z,13.05
2023-03-21T13:12:56.159Z,13.03
2023-03-21T13:15:48.318Z,12.99
2023-03-21T13:18:30.659Z,12.95
2023-03-21T13:21:05.426Z,12.92
2023-03-21T13:23:40.554Z,12.89
2023-03-21T13:26:13.708Z,12.88
2023-03-21T13:28:44.760Z,12.88
2023-03-21T13:31:23.217Z,12.88
2023-03-21T13:33:55.457Z,12.87
2023-03-21T13:36:29.078Z,12.86
2023-03-21T13:39:04.305Z,12.86
2023-03-21T13:41:39.410Z,12.86
2023-03-21T13:44:19.890Z,12.85
2023-03-21T13:47:00.663Z,12.85
2023-03-21T13:49:35.350Z,12.84
2023-03-21T13:52:28.445Z,12.85
2023-03-21T13:55:03.710Z,12.84
2023-03-21T13:57:41.275Z,12.83
2023-03-21T14:00:23.600Z,12.84
2023-03-21T14:02:57.786Z,12.84
2023-03-21T14:05:29.542Z,12.85
2023-03-21T14:08:13.597Z,12.85
2023-03-21T14:10:49.472Z,12.84
2023-03-21T14:13:23.567Z,12.82
2023-03-21T14:15:56.933Z,12.81
2023-03-21T14:18:52.773Z,12.80
2023-03-21T14:21:25.058Z,12.78
2023-03-21T14:24:03.926Z,12.74
2023-03-21T14:26:37.244Z,12.70
2023-03-21T14:29:25.031Z,12.67
2023-03-21T14:31:58.334Z,12.67
2023-03-21T14:34:30.521Z,12.65
2023-03-21T14:37:01.012Z,12.64
2023-03-21T14:39:33.569Z,12.63
2023-03-21T14:42:07.513Z,12.62
2023-03-21T14:44:53.982Z,12.60
2023-03-21T14:47:25.156Z,12.57
2023-03-21T14:49:57.431Z,12.53
2023-03-21T14:52:31.473Z,12.51
2023-03-21T14:55:03.684Z,12.47
2023-03-21T14:57:35.125Z,12.44
2023-03-21T15:00:12.468Z,12.42
2023-03-21T15:02:45.935Z,12.39
2023-03-21T15:05:23.811Z,12.36
2023-03-21T15:07:59.814Z,12.34
2023-03-21T15:10:32.573Z,12.31
2023-03-21T15:13:14.285Z,12.29
2023-03-21T15:15:45.649Z,12.25
2023-03-21T15:18:20.378Z,12.20
2023-03-21T15:20:53.079Z,12.16
2023-03-21T15:23:29.814Z,12.15
2023-03-21T15:26:02.889Z,12.14
2023-03-21T15:28:34.232Z,12.13
2023-03-21T15:31:18.876Z,12.10
2023-03-21T15:33:51.851Z,12.06
2023-03-21T15:36:26.155Z,12.06
2023-03-21T15:38:57.291Z,12.06
2023-03-21T15:41:31.514Z,12.06
2023-03-21T15:44:14.392Z,12.07
2023-03-21T15:46:48.195Z,12.05
2023-03-21T15:49:27.449Z,12.06
2023-03-21T15:52:02.391Z,12.07
2023-03-21T15:54:34.840Z,12.07
2023-03-21T15:57:19.939Z,12.06
2023-03-21T15:59:54.915Z,12.06
2023-03-21T16:02:30.712Z,12.05
2023-03-21T16:05:04.403Z,12.03
2023-03-21T16:07:37.034Z,12.02
2023-03-21T16:10:19.975Z,12.00
2023-03-21T16:12:51.431Z,11.96
2023-03-21T16:15:21.999Z,11.93
2023-03-21T16:17:55.833Z,11.92
2023-03-21T16:20:29.275Z,11.92
2023-03-21T16:22:59.983Z,11.91
2023-03-21T16:25:31.871Z,11.91
2023-03-21T16:28:02.584Z,11.88
2023-03-21T16:30:34.871Z,11.84
2023-03-21T16:33:05.916Z,11.82
2023-03-21T16:35:36.512Z,11.81
2023-03-21T16:38:06.882Z,11.80
2023-03-21T16:40:41.016Z,11.78
2023-03-21T16:43:11.732Z,11.76
2023-03-21T16:45:42.196Z,11.74
2023-03-21T16:48:16.480Z,11.73
2023-03-21T16:50:49.552Z,11.70
2023-03-21T16:53:19.902Z,11.66
2023-03-21T16:55:50.343Z,11.63
2023-03-21T16:58:20.918Z,11.59
2023-03-21T17:00:51.267Z,11.56
2023-03-21T17:03:21.986Z,11.51
2023-03-21T17:05:52.739Z,11.47
2023-03-21T17:08:23.262Z,11.43
2023-03-21T17:10:53.862Z,11.40
2023-03-21T17:13:24.601Z,11.37
2023-03-21T17:15:54.972Z,11.35
2023-03-21T17:18:25.387Z,11.32
2023-03-21T17:20:55.940Z,11.28
2023-03-21T17:23:27.048Z,11.26
2023-03-21T17:25:57.381Z,11.25
2023-03-21T17:28:27.682Z,11.23
2023-03-21T17:30:58.349Z,11.20
2023-03-21T17:33:28.827Z,11.17
2023-03-21T17:35:59.603Z,11.15
2023-03-21T17:38:30.941Z,11.12
2023-03-21T17:41:01.267Z,11.10
2023-03-21T17:43:31.981Z,11.09
2023-03-21T17:46:02.819Z,11.07
2023-03-21T17:48:33.261Z,11.05
2023-03-21T17:51:04.002Z,11.03
2023-03-21T17:53:34.326Z,11.01
2023-03-21T17:56:05.200Z,10.99
2023-03-21T17:58:35.618Z,10.98
2023-03-21T18:01:07.438Z,10.97
2023-03-21T18:03:37.838Z,10.96
2023-03-21T18:06:13.472Z,10.96
2023-03-21T18:08:44.764Z,10.95
2023-03-21T18:11:16.027Z,10.95
2023-03-21T18:13:46.733Z,10.95
2023-03-21T18:16:24.425Z,10.95
2023-03-21T18:18:56.709Z,10.92
2023-03-21T18:21:32.204Z,10.90
2023-03-21T18:24:04.039Z,10.87
2023-03-21T18:26:34.407Z,10.84
2023-03-21T18:32:06.426Z,10.76
2023-03-21T18:34:39.417Z,10.75
2023-03-21T18:37:13.232Z,10.74
2023-03-21T18:39:45.213Z,10.72
2023-03-21T18:42:18.943Z,10.70
2023-03-21T18:44:53.217Z,10.68
2023-03-21T18:47:23.942Z,10.66
2023-03-21T18:50:13.322Z,10.63
2023-03-21T18:52:44.870Z,10.61
2023-03-21T18:55:15.557Z,10.58
2023-03-21T18:57:46.208Z,10.56
2023-03-21T19:00:21.620Z,10.53
2023-03-21T19:03:04.259Z,10.51
2023-03-21T19:05:41.040Z,10.47
2023-03-21T19:08:11.597Z,10.44
2023-03-21T19:10:42.101Z,10.43
2023-03-21T19:13:12.737Z,10.42
2023-03-21T19:15:43.378Z,10.41
2023-03-21T19:21:05.133Z,10.39
2023-03-21T19:24:07.844Z,10.36
2023-03-21T19:26:27.746Z,10.36
2023-03-21T19:28:58.616Z,10.34
2023-03-21T19:31:29.022Z,10.33
2023-03-21T19:33:59.867Z,10.32
2023-03-21T19:36:33.091Z,10.31
2023-03-21T19:39:05.362Z,10.30
2023-03-21T19:41:36.409Z,10.29
2023-03-21T19:44:08.362Z,10.27
2023-03-21T19:46:38.678Z,10.26
2023-03-21T19:49:09.576Z,10.25
2023-03-21T19:51:40.653Z,10.24
2023-03-21T19:54:11.374Z,10.23
2023-03-21T19:56:47.131Z,10.23
2023-03-21T19:59:18.443Z,10.23
2023-03-21T20:01:49.163Z,10.24
2023-03-21T20:04:19.651Z,10.23
2023-03-21T20:06:54.245Z,10.22
2023-03-21T20:09:50.750Z,10.23
2023-03-21T20:12:16.146Z,10.22
2023-03-21T20:14:49.068Z,10.22
2023-03-21T20:17:19.541Z,10.23
2023-03-21T20:19:50.180Z,10.23
2023-03-21T20:22:31.194Z,10.22
2023-03-21T20:25:12.044Z,10.21
2023-03-21T20:27:43.936Z,10.21
2023-03-21T20:30:18.378Z,10.21
2023-03-21T20:32:49.678Z,10.20
2023-03-21T20:35:39.840Z,10.18
2023-03-21T20:38:13.428Z,10.17
2023-03-21T20:40:45.548Z,10.16
2023-03-21T20:44:06.512Z,10.14
2023-03-21T20:46:09.262Z,10.12
2023-03-21T20:48:40.713Z,10.11
2023-03-21T20:54:03.575Z,10.10
2023-03-21T20:56:34.639Z,10.09
2023-03-21T20:59:17.295Z,10.09
2023-03-21T21:01:54.078Z,10.08
2023-03-21T21:04:41.214Z,10.06
2023-03-21T21:07:17.022Z,10.03
2023-03-21T21:09:47.950Z,10.00
2023-03-21T21:12:19.789Z,9.97
2023-03-21T21:14:50.740Z,9.93
2023-03-21T21:17:37.174Z,9.90
2023-03-21T21:20:17.402Z,9.87
2023-03-21T21:22:59.627Z,9.85
2023-03-21T21:25:32.526Z,9.82
2023-03-21T21:28:03.289Z,9.79
2023-03-21T21:30:34.361Z,9.76
2023-03-21T21:33:05.473Z,9.73
2023-03-21T21:35:36.784Z,9.70
2023-03-21T21:38:07.397Z,9.66
2023-03-21T21:40:38.029Z,9.63
2023-03-21T21:43:08.750Z,9.58
2023-03-21T21:45:39.251Z,9.53
2023-03-21T21:48:11.536Z,9.48
2023-03-21T21:50:43.292Z,9.44
2023-03-21T21:53:19.100Z,9.40
2023-03-21T21:55:51.127Z,9.35
2023-03-21T21:58:21.789Z,9.30
2023-03-21T22:00:52.216Z,9.26
2023-03-21T22:03:23.200Z,9.23
2023-03-21T22:06:02.683Z,9.21
2023-03-21T22:08:33.620Z,9.15
2023-03-21T22:11:04.856Z,9.09
2023-03-21T22:13:35.391Z,9.05
2023-03-21T22:16:06.931Z,9.01
2023-03-21T22:18:38.520Z,9.00
2023-03-21T22:21:10.272Z,9.00
2023-03-21T22:23:41.396Z,9.00
2023-03-21T22:26:11.844Z,9.01
2023-03-21T22:28:43.483Z,9.02
2023-03-21T22:31:17.100Z,9.03
2023-03-21T22:33:48.709Z,9.04
2023-03-21T22:36:20.095Z,9.04
2023-03-21T22:38:50.695Z,9.05
2023-03-21T22:41:21.310Z,9.05
2023-03-21T22:43:51.705Z,9.03
2023-03-21T22:46:22.221Z,9.01
2023-03-21T22:48:52.660Z,9.01
2023-03-21T22:51:23.660Z,9.00
2023-03-21T22:53:57.208Z,9.00
2023-03-21T22:56:28.105Z,9.00
2023-03-21T22:59:00.270Z,8.98
2023-03-21T23:01:31.535Z,8.96
2023-03-21T23:04:02.161Z,8.94
2023-03-21T23:06:33.877Z,8.92
2023-03-21T23:09:05.270Z,8.90
2023-03-21T23:11:35.986Z,8.90
2023-03-21T23:14:08.461Z,8.88
2023-03-21T23:16:39.030Z,8.88
2023-03-21T23:19:10.353Z,8.85
2023-03-21T23:21:41.426Z,8.84
2023-03-21T23:24:12.658Z,8.83
2023-03-21T23:26:42.997Z,8.81
2023-03-21T23:29:14.128Z,8.79
2023-03-21T23:31:44.478Z,8.80
2023-03-21T23:34:14.885Z,8.79
2023-03-21T23:36:45.268Z,8.78
2023-03-21T23:39:18.406Z,8.78
2023-03-21T23:41:49.150Z,8.78
2023-03-21T23:44:19.404Z,8.76
2023-03-21T23:46:50.110Z,8.76
2023-03-21T23:49:20.757Z,8.75
2023-03-21T23:51:51.304Z,8.72
2023-03-21T23:54:21.620Z,8.70
2023-03-21T23:56:52.168Z,8.68
2023-03-21T23:59:22.814Z,8.66
